sensor_id;sensor_type;location;lat;lon;timestamp;temperature;humidity
25945;SHT31;13742;49.306;8.636;2023-07-09T00:00:16;25.63;52.12
25945;SHT31;13742;49.306;8.636;2023-07-09T00:01:15;25.60;51.95
25945;SHT31;13742;49.306;8.636;2023-07-09T00:02:13;25.59;52.31
25945;SHT31;13742;49.306;8.636;2023-07-09T00:03:13;25.56;51.94
25945;SHT31;13742;49.306;8.636;2023-07-09T00:04:13;25.57;52.07
25945;SHT31;13742;49.306;8.636;2023-07-09T00:05:16;25.56;52.14
25945;SHT31;13742;49.306;8.636;2023-07-09T00:06:13;25.50;52.32
25945;SHT31;13742;49.306;8.636;2023-07-09T00:07:26;25.51;52.59
25945;SHT31;13742;49.306;8.636;2023-07-09T00:08:27;25.53;52.66
25945;SHT31;13742;49.306;8.636;2023-07-09T00:09:15;25.41;53.49
25945;SHT31;13742;49.306;8.636;2023-07-09T00:10:18;25.36;53.51
25945;SHT31;13742;49.306;8.636;2023-07-09T00:11:14;25.34;53.31
25945;SHT31;13742;49.306;8.636;2023-07-09T00:12:18;25.32;52.94
25945;SHT31;13742;49.306;8.636;2023-07-09T00:13:13;25.29;52.77
25945;SHT31;13742;49.306;8.636;2023-07-09T00:14:15;25.29;52.79
25945;SHT31;13742;49.306;8.636;2023-07-09T00:15:15;25.29;53.05
25945;SHT31;13742;49.306;8.636;2023-07-09T00:16:25;25.28;53.19
25945;SHT31;13742;49.306;8.636;2023-07-09T00:17:22;25.23;53.15
25945;SHT31;13742;49.306;8.636;2023-07-09T00:18:13;25.25;53.10
25945;SHT31;13742;49.306;8.636;2023-07-09T00:19:20;25.23;52.89
25945;SHT31;13742;49.306;8.636;2023-07-09T00:20:17;25.23;52.50
25945;SHT31;13742;49.306;8.636;2023-07-09T00:21:13;25.23;53.48
25945;SHT31;13742;49.306;8.636;2023-07-09T00:22:16;25.22;52.76
25945;SHT31;13742;49.306;8.636;2023-07-09T00:23:14;25.26;53.62
25945;SHT31;13742;49.306;8.636;2023-07-09T00:24:13;25.22;53.69
25945;SHT31;13742;49.306;8.636;2023-07-09T00:25:18;25.22;53.00
25945;SHT31;13742;49.306;8.636;2023-07-09T00:26:13;25.20;52.87
25945;SHT31;13742;49.306;8.636;2023-07-09T00:27:14;25.25;53.24
25945;SHT31;13742;49.306;8.636;2023-07-09T00:28:17;25.19;53.59
25945;SHT31;13742;49.306;8.636;2023-07-09T00:29:13;25.19;53.49
25945;SHT31;13742;49.306;8.636;2023-07-09T00:30:16;25.18;53.16
25945;SHT31;13742;49.306;8.636;2023-07-09T00:31:15;25.16;53.01
25945;SHT31;13742;49.306;8.636;2023-07-09T00:32:16;25.18;52.88
25945;SHT31;13742;49.306;8.636;2023-07-09T00:33:16;25.16;52.52
25945;SHT31;13742;49.306;8.636;2023-07-09T00:34:14;25.13;52.26
25945;SHT31;13742;49.306;8.636;2023-07-09T00:35:15;25.13;52.88
25945;SHT31;13742;49.306;8.636;2023-07-09T00:36:20;25.16;52.78
25945;SHT31;13742;49.306;8.636;2023-07-09T00:37:13;25.13;52.66
25945;SHT31;13742;49.306;8.636;2023-07-09T00:38:14;25.13;52.34
25945;SHT31;13742;49.306;8.636;2023-07-09T00:39:19;25.13;52.48
25945;SHT31;13742;49.306;8.636;2023-07-09T00:40:19;25.13;52.26
25945;SHT31;13742;49.306;8.636;2023-07-09T00:41:19;25.15;52.07
25945;SHT31;13742;49.306;8.636;2023-07-09T00:42:16;25.13;52.20
25945;SHT31;13742;49.306;8.636;2023-07-09T00:43:15;25.12;52.49
25945;SHT31;13742;49.306;8.636;2023-07-09T00:45:26;25.13;52.71
25945;SHT31;13742;49.306;8.636;2023-07-09T00:47:21;25.08;52.92
25945;SHT31;13742;49.306;8.636;2023-07-09T00:48:15;25.08;52.43
25945;SHT31;13742;49.306;8.636;2023-07-09T00:49:30;25.09;52.61
25945;SHT31;13742;49.306;8.636;2023-07-09T00:50:23;25.06;52.81
25945;SHT31;13742;49.306;8.636;2023-07-09T00:51:15;25.08;52.70
25945;SHT31;13742;49.306;8.636;2023-07-09T00:52:28;25.05;52.95
25945;SHT31;13742;49.306;8.636;2023-07-09T00:53:18;25.05;52.64
25945;SHT31;13742;49.306;8.636;2023-07-09T00:55:19;25.05;52.42
25945;SHT31;13742;49.306;8.636;2023-07-09T00:56:19;24.98;52.61
25945;SHT31;13742;49.306;8.636;2023-07-09T00:57:17;24.98;52.50
25945;SHT31;13742;49.306;8.636;2023-07-09T00:58:15;24.98;52.76
25945;SHT31;13742;49.306;8.636;2023-07-09T00:59:17;24.98;52.81
25945;SHT31;13742;49.306;8.636;2023-07-09T01:00:14;24.97;52.61
25945;SHT31;13742;49.306;8.636;2023-07-09T01:01:16;24.97;53.14
25945;SHT31;13742;49.306;8.636;2023-07-09T01:02:13;24.95;52.99
25945;SHT31;13742;49.306;8.636;2023-07-09T01:03:31;24.94;52.82
25945;SHT31;13742;49.306;8.636;2023-07-09T01:04:13;24.94;53.26
25945;SHT31;13742;49.306;8.636;2023-07-09T01:05:14;24.91;52.94
25945;SHT31;13742;49.306;8.636;2023-07-09T01:06:15;24.92;53.26
25945;SHT31;13742;49.306;8.636;2023-07-09T01:07:13;24.91;52.91
25945;SHT31;13742;49.306;8.636;2023-07-09T01:08:13;24.88;52.70
25945;SHT31;13742;49.306;8.636;2023-07-09T01:09:13;24.86;52.66
25945;SHT31;13742;49.306;8.636;2023-07-09T01:10:14;24.88;52.65
25945;SHT31;13742;49.306;8.636;2023-07-09T01:11:17;24.86;53.33
25945;SHT31;13742;49.306;8.636;2023-07-09T01:12:14;24.86;52.82
25945;SHT31;13742;49.306;8.636;2023-07-09T01:13:13;24.83;52.97
25945;SHT31;13742;49.306;8.636;2023-07-09T01:14:19;24.85;52.73
25945;SHT31;13742;49.306;8.636;2023-07-09T01:15:15;24.82;52.93
25945;SHT31;13742;49.306;8.636;2023-07-09T01:16:13;24.83;53.09
25945;SHT31;13742;49.306;8.636;2023-07-09T01:17:13;24.82;53.28
25945;SHT31;13742;49.306;8.636;2023-07-09T01:18:14;24.78;53.02
25945;SHT31;13742;49.306;8.636;2023-07-09T01:19:14;24.78;53.33
25945;SHT31;13742;49.306;8.636;2023-07-09T01:20:17;24.77;53.19
25945;SHT31;13742;49.306;8.636;2023-07-09T01:21:15;24.78;53.16
25945;SHT31;13742;49.306;8.636;2023-07-09T01:22:18;24.75;53.17
25945;SHT31;13742;49.306;8.636;2023-07-09T01:23:13;24.72;53.49
25945;SHT31;13742;49.306;8.636;2023-07-09T01:24:45;24.72;53.45
25945;SHT31;13742;49.306;8.636;2023-07-09T01:25:13;24.68;53.06
25945;SHT31;13742;49.306;8.636;2023-07-09T01:26:16;24.68;53.53
25945;SHT31;13742;49.306;8.636;2023-07-09T01:27:13;24.65;53.25
25945;SHT31;13742;49.306;8.636;2023-07-09T01:28:13;24.65;52.97
25945;SHT31;13742;49.306;8.636;2023-07-09T01:29:13;24.58;53.29
25945;SHT31;13742;49.306;8.636;2023-07-09T01:30:22;24.60;53.04
25945;SHT31;13742;49.306;8.636;2023-07-09T01:31:14;24.60;52.91
25945;SHT31;13742;49.306;8.636;2023-07-09T01:32:14;24.60;52.87
25945;SHT31;13742;49.306;8.636;2023-07-09T01:33:13;24.58;52.93
25945;SHT31;13742;49.306;8.636;2023-07-09T01:34:15;24.60;53.02
25945;SHT31;13742;49.306;8.636;2023-07-09T01:35:15;24.58;52.91
25945;SHT31;13742;49.306;8.636;2023-07-09T01:36:16;24.55;53.04
25945;SHT31;13742;49.306;8.636;2023-07-09T01:37:18;24.52;53.21
25945;SHT31;13742;49.306;8.636;2023-07-09T01:38:13;24.51;53.03
25945;SHT31;13742;49.306;8.636;2023-07-09T01:39:13;24.51;53.22
25945;SHT31;13742;49.306;8.636;2023-07-09T01:40:15;24.51;53.12
25945;SHT31;13742;49.306;8.636;2023-07-09T01:41:14;24.48;53.30
25945;SHT31;13742;49.306;8.636;2023-07-09T01:42:13;24.48;53.33
25945;SHT31;13742;49.306;8.636;2023-07-09T01:43:13;24.46;53.24
25945;SHT31;13742;49.306;8.636;2023-07-09T01:44:14;24.47;53.18
25945;SHT31;13742;49.306;8.636;2023-07-09T01:45:13;24.46;53.19
25945;SHT31;13742;49.306;8.636;2023-07-09T01:46:13;24.46;53.33
25945;SHT31;13742;49.306;8.636;2023-07-09T01:47:13;24.43;53.42
25945;SHT31;13742;49.306;8.636;2023-07-09T01:48:16;24.41;54.10
25945;SHT31;13742;49.306;8.636;2023-07-09T01:49:15;24.41;53.74
25945;SHT31;13742;49.306;8.636;2023-07-09T01:50:13;24.41;53.69
25945;SHT31;13742;49.306;8.636;2023-07-09T01:51:15;24.37;53.41
25945;SHT31;13742;49.306;8.636;2023-07-09T01:52:14;24.34;54.27
25945;SHT31;13742;49.306;8.636;2023-07-09T01:53:14;24.33;53.80
25945;SHT31;13742;49.306;8.636;2023-07-09T01:54:13;24.31;53.98
25945;SHT31;13742;49.306;8.636;2023-07-09T01:55:13;24.31;53.76
25945;SHT31;13742;49.306;8.636;2023-07-09T01:56:13;24.31;53.84
25945;SHT31;13742;49.306;8.636;2023-07-09T01:57:21;24.28;54.28
25945;SHT31;13742;49.306;8.636;2023-07-09T01:58:12;24.27;54.07
25945;SHT31;13742;49.306;8.636;2023-07-09T01:59:12;24.30;54.11
25945;SHT31;13742;49.306;8.636;2023-07-09T02:00:15;24.28;54.12
25945;SHT31;13742;49.306;8.636;2023-07-09T02:01:15;24.28;54.06
25945;SHT31;13742;49.306;8.636;2023-07-09T02:02:19;24.30;53.74
25945;SHT31;13742;49.306;8.636;2023-07-09T02:03:14;24.30;54.70
25945;SHT31;13742;49.306;8.636;2023-07-09T02:04:12;24.27;54.60
25945;SHT31;13742;49.306;8.636;2023-07-09T02:05:19;24.28;54.71
25945;SHT31;13742;49.306;8.636;2023-07-09T02:06:12;24.25;54.33
25945;SHT31;13742;49.306;8.636;2023-07-09T02:07:14;24.24;54.18
25945;SHT31;13742;49.306;8.636;2023-07-09T02:08:13;24.24;54.34
25945;SHT31;13742;49.306;8.636;2023-07-09T02:09:13;24.24;54.06
25945;SHT31;13742;49.306;8.636;2023-07-09T02:10:14;24.25;54.94
25945;SHT31;13742;49.306;8.636;2023-07-09T02:11:12;24.24;54.85
25945;SHT31;13742;49.306;8.636;2023-07-09T02:12:14;24.23;54.76
25945;SHT31;13742;49.306;8.636;2023-07-09T02:13:12;24.20;54.90
25945;SHT31;13742;49.306;8.636;2023-07-09T02:14:12;24.19;55.49
25945;SHT31;13742;49.306;8.636;2023-07-09T02:15:13;24.14;54.54
25945;SHT31;13742;49.306;8.636;2023-07-09T02:16:12;24.14;54.74
25945;SHT31;13742;49.306;8.636;2023-07-09T02:17:14;24.14;55.16
25945;SHT31;13742;49.306;8.636;2023-07-09T02:18:13;24.14;54.87
25945;SHT31;13742;49.306;8.636;2023-07-09T02:19:12;24.10;54.65
25945;SHT31;13742;49.306;8.636;2023-07-09T02:20:13;24.09;54.36
25945;SHT31;13742;49.306;8.636;2023-07-09T02:21:12;24.11;54.35
25945;SHT31;13742;49.306;8.636;2023-07-09T02:22:13;24.11;54.35
25945;SHT31;13742;49.306;8.636;2023-07-09T02:23:13;24.13;54.49
25945;SHT31;13742;49.306;8.636;2023-07-09T02:24:12;24.10;54.21
25945;SHT31;13742;49.306;8.636;2023-07-09T02:25:13;24.09;54.41
25945;SHT31;13742;49.306;8.636;2023-07-09T02:26:13;24.07;54.37
25945;SHT31;13742;49.306;8.636;2023-07-09T02:27:17;24.07;54.31
25945;SHT31;13742;49.306;8.636;2023-07-09T02:28:12;24.07;54.29
25945;SHT31;13742;49.306;8.636;2023-07-09T02:29:12;24.04;54.78
25945;SHT31;13742;49.306;8.636;2023-07-09T02:30:12;24.03;55.23
25945;SHT31;13742;49.306;8.636;2023-07-09T02:31:14;24.02;54.79
25945;SHT31;13742;49.306;8.636;2023-07-09T02:32:20;24.00;54.90
25945;SHT31;13742;49.306;8.636;2023-07-09T02:33:12;24.00;54.92
25945;SHT31;13742;49.306;8.636;2023-07-09T02:34:12;23.96;55.64
25945;SHT31;13742;49.306;8.636;2023-07-09T02:35:12;23.95;54.93
25945;SHT31;13742;49.306;8.636;2023-07-09T02:36:12;23.95;55.06
25945;SHT31;13742;49.306;8.636;2023-07-09T02:37:12;23.95;54.85
25945;SHT31;13742;49.306;8.636;2023-07-09T02:38:12;23.92;54.65
25945;SHT31;13742;49.306;8.636;2023-07-09T02:39:13;23.93;54.85
25945;SHT31;13742;49.306;8.636;2023-07-09T02:40:14;23.93;54.58
25945;SHT31;13742;49.306;8.636;2023-07-09T02:41:12;23.92;54.54
25945;SHT31;13742;49.306;8.636;2023-07-09T02:42:15;23.90;54.62
25945;SHT31;13742;49.306;8.636;2023-07-09T02:43:12;23.92;55.04
25945;SHT31;13742;49.306;8.636;2023-07-09T02:44:13;23.92;54.78
25945;SHT31;13742;49.306;8.636;2023-07-09T02:45:12;23.89;54.54
25945;SHT31;13742;49.306;8.636;2023-07-09T02:46:12;23.88;54.55
25945;SHT31;13742;49.306;8.636;2023-07-09T02:47:13;23.85;54.97
25945;SHT31;13742;49.306;8.636;2023-07-09T02:48:13;23.86;54.70
25945;SHT31;13742;49.306;8.636;2023-07-09T02:49:13;23.83;54.43
25945;SHT31;13742;49.306;8.636;2023-07-09T02:50:13;23.83;55.03
25945;SHT31;13742;49.306;8.636;2023-07-09T02:51:12;23.83;54.54
25945;SHT31;13742;49.306;8.636;2023-07-09T02:52:13;23.79;54.78
25945;SHT31;13742;49.306;8.636;2023-07-09T02:53:12;23.79;55.02
25945;SHT31;13742;49.306;8.636;2023-07-09T02:54:13;23.76;54.81
25945;SHT31;13742;49.306;8.636;2023-07-09T02:55:12;23.78;54.55
25945;SHT31;13742;49.306;8.636;2023-07-09T02:56:12;23.73;54.66
25945;SHT31;13742;49.306;8.636;2023-07-09T02:57:13;23.72;54.60
25945;SHT31;13742;49.306;8.636;2023-07-09T02:58:12;23.71;54.60
25945;SHT31;13742;49.306;8.636;2023-07-09T02:59:12;23.69;54.72
25945;SHT31;13742;49.306;8.636;2023-07-09T03:00:13;23.71;54.73
25945;SHT31;13742;49.306;8.636;2023-07-09T03:01:13;23.71;54.83
25945;SHT31;13742;49.306;8.636;2023-07-09T03:02:12;23.69;54.74
25945;SHT31;13742;49.306;8.636;2023-07-09T03:03:12;23.66;54.62
25945;SHT31;13742;49.306;8.636;2023-07-09T03:04:14;23.65;55.03
25945;SHT31;13742;49.306;8.636;2023-07-09T03:05:13;23.62;55.32
25945;SHT31;13742;49.306;8.636;2023-07-09T03:06:12;23.62;55.10
25945;SHT31;13742;49.306;8.636;2023-07-09T03:07:12;23.59;54.78
25945;SHT31;13742;49.306;8.636;2023-07-09T03:08:13;23.59;55.36
25945;SHT31;13742;49.306;8.636;2023-07-09T03:09:13;23.59;54.99
25945;SHT31;13742;49.306;8.636;2023-07-09T03:10:13;23.56;55.26
25945;SHT31;13742;49.306;8.636;2023-07-09T03:11:16;23.55;55.11
25945;SHT31;13742;49.306;8.636;2023-07-09T03:12:12;23.56;55.25
25945;SHT31;13742;49.306;8.636;2023-07-09T03:13:12;23.52;55.83
25945;SHT31;13742;49.306;8.636;2023-07-09T03:14:13;23.51;55.51
25945;SHT31;13742;49.306;8.636;2023-07-09T03:15:12;23.48;55.44
25945;SHT31;13742;49.306;8.636;2023-07-09T03:16:13;23.49;55.53
25945;SHT31;13742;49.306;8.636;2023-07-09T03:17:12;23.48;55.48
25945;SHT31;13742;49.306;8.636;2023-07-09T03:18:12;23.46;56.01
25945;SHT31;13742;49.306;8.636;2023-07-09T03:19:12;23.48;55.74
25945;SHT31;13742;49.306;8.636;2023-07-09T03:20:13;23.44;55.88
25945;SHT31;13742;49.306;8.636;2023-07-09T03:21:12;23.44;55.43
25945;SHT31;13742;49.306;8.636;2023-07-09T03:22:12;23.42;55.40
25945;SHT31;13742;49.306;8.636;2023-07-09T03:23:12;23.42;55.29
25945;SHT31;13742;49.306;8.636;2023-07-09T03:24:15;23.41;55.85
25945;SHT31;13742;49.306;8.636;2023-07-09T03:25:13;23.38;55.92
25945;SHT31;13742;49.306;8.636;2023-07-09T03:26:13;23.34;55.71
25945;SHT31;13742;49.306;8.636;2023-07-09T03:27:12;23.31;56.15
25945;SHT31;13742;49.306;8.636;2023-07-09T03:28:13;23.31;56.86
25945;SHT31;13742;49.306;8.636;2023-07-09T03:29:12;23.28;55.81
25945;SHT31;13742;49.306;8.636;2023-07-09T03:30:12;23.27;55.62
25945;SHT31;13742;49.306;8.636;2023-07-09T03:31:13;23.27;55.64
25945;SHT31;13742;49.306;8.636;2023-07-09T03:32:12;23.28;55.51
25945;SHT31;13742;49.306;8.636;2023-07-09T03:33:14;23.27;56.03
25945;SHT31;13742;49.306;8.636;2023-07-09T03:34:12;23.24;55.85
25945;SHT31;13742;49.306;8.636;2023-07-09T03:35:12;23.24;56.28
25945;SHT31;13742;49.306;8.636;2023-07-09T03:36:13;23.22;56.42
25945;SHT31;13742;49.306;8.636;2023-07-09T03:37:12;23.21;56.49
25945;SHT31;13742;49.306;8.636;2023-07-09T03:38:12;23.17;56.16
25945;SHT31;13742;49.306;8.636;2023-07-09T03:39:12;23.20;56.06
25945;SHT31;13742;49.306;8.636;2023-07-09T03:40:23;23.15;55.83
25945;SHT31;13742;49.306;8.636;2023-07-09T03:41:13;23.18;55.97
25945;SHT31;13742;49.306;8.636;2023-07-09T03:42:13;23.14;56.51
25945;SHT31;13742;49.306;8.636;2023-07-09T03:43:12;23.14;56.37
25945;SHT31;13742;49.306;8.636;2023-07-09T03:44:13;23.11;56.00
25945;SHT31;13742;49.306;8.636;2023-07-09T03:45:12;23.11;55.89
25945;SHT31;13742;49.306;8.636;2023-07-09T03:46:12;23.13;56.37
25945;SHT31;13742;49.306;8.636;2023-07-09T03:47:12;23.14;56.46
25945;SHT31;13742;49.306;8.636;2023-07-09T03:48:14;23.14;56.14
25945;SHT31;13742;49.306;8.636;2023-07-09T03:49:12;23.15;56.35
25945;SHT31;13742;49.306;8.636;2023-07-09T03:50:13;23.11;56.17
25945;SHT31;13742;49.306;8.636;2023-07-09T03:51:12;23.11;56.53
25945;SHT31;13742;49.306;8.636;2023-07-09T03:52:12;23.10;56.45
25945;SHT31;13742;49.306;8.636;2023-07-09T03:53:14;23.11;56.16
25945;SHT31;13742;49.306;8.636;2023-07-09T03:54:12;23.11;56.52
25945;SHT31;13742;49.306;8.636;2023-07-09T03:55:13;23.13;56.59
25945;SHT31;13742;49.306;8.636;2023-07-09T03:56:12;23.13;56.29
25945;SHT31;13742;49.306;8.636;2023-07-09T03:57:12;23.14;56.26
25945;SHT31;13742;49.306;8.636;2023-07-09T03:58:13;23.13;56.62
25945;SHT31;13742;49.306;8.636;2023-07-09T03:59:12;23.13;56.55
25945;SHT31;13742;49.306;8.636;2023-07-09T04:00:13;23.10;56.86
25945;SHT31;13742;49.306;8.636;2023-07-09T04:01:12;23.04;57.29
25945;SHT31;13742;49.306;8.636;2023-07-09T04:02:12;23.07;56.61
25945;SHT31;13742;49.306;8.636;2023-07-09T04:03:12;23.07;56.88
25945;SHT31;13742;49.306;8.636;2023-07-09T04:04:13;23.04;56.90
25945;SHT31;13742;49.306;8.636;2023-07-09T04:05:13;23.04;57.20
25945;SHT31;13742;49.306;8.636;2023-07-09T04:06:12;23.04;57.02
25945;SHT31;13742;49.306;8.636;2023-07-09T04:07:13;23.04;57.59
25945;SHT31;13742;49.306;8.636;2023-07-09T04:08:12;23.00;57.01
25945;SHT31;13742;49.306;8.636;2023-07-09T04:09:12;23.00;56.71
25945;SHT31;13742;49.306;8.636;2023-07-09T04:10:14;23.00;56.81
25945;SHT31;13742;49.306;8.636;2023-07-09T04:11:12;22.98;56.88
25945;SHT31;13742;49.306;8.636;2023-07-09T04:12:12;22.98;57.08
25945;SHT31;13742;49.306;8.636;2023-07-09T04:13:12;23.01;56.88
25945;SHT31;13742;49.306;8.636;2023-07-09T04:14:13;22.98;57.31
25945;SHT31;13742;49.306;8.636;2023-07-09T04:15:13;22.98;57.32
25945;SHT31;13742;49.306;8.636;2023-07-09T04:16:12;22.98;56.82
25945;SHT31;13742;49.306;8.636;2023-07-09T04:17:12;22.97;57.31
25945;SHT31;13742;49.306;8.636;2023-07-09T04:18:12;22.95;57.55
25945;SHT31;13742;49.306;8.636;2023-07-09T04:19:12;22.98;57.58
25945;SHT31;13742;49.306;8.636;2023-07-09T04:20:14;22.95;57.61
25945;SHT31;13742;49.306;8.636;2023-07-09T04:21:12;22.95;57.12
25945;SHT31;13742;49.306;8.636;2023-07-09T04:22:13;22.95;57.68
25945;SHT31;13742;49.306;8.636;2023-07-09T04:23:13;22.95;57.30
25945;SHT31;13742;49.306;8.636;2023-07-09T04:24:14;22.97;58.06
25945;SHT31;13742;49.306;8.636;2023-07-09T04:25:12;22.97;57.16
25945;SHT31;13742;49.306;8.636;2023-07-09T04:26:14;22.98;57.12
25945;SHT31;13742;49.306;8.636;2023-07-09T04:27:13;22.98;57.80
25945;SHT31;13742;49.306;8.636;2023-07-09T04:28:14;22.95;57.16
25945;SHT31;13742;49.306;8.636;2023-07-09T04:29:13;22.95;57.30
25945;SHT31;13742;49.306;8.636;2023-07-09T04:30:14;22.95;57.19
25945;SHT31;13742;49.306;8.636;2023-07-09T04:31:12;22.98;57.01
25945;SHT31;13742;49.306;8.636;2023-07-09T04:32:14;22.98;57.70
25945;SHT31;13742;49.306;8.636;2023-07-09T04:33:12;22.98;57.58
25945;SHT31;13742;49.306;8.636;2023-07-09T04:34:12;22.98;57.55
25945;SHT31;13742;49.306;8.636;2023-07-09T04:35:14;22.98;57.46
25945;SHT31;13742;49.306;8.636;2023-07-09T04:36:13;23.00;57.60
25945;SHT31;13742;49.306;8.636;2023-07-09T04:37:13;23.01;57.19
25945;SHT31;13742;49.306;8.636;2023-07-09T04:38:13;22.98;57.03
25945;SHT31;13742;49.306;8.636;2023-07-09T04:39:12;22.98;57.01
25945;SHT31;13742;49.306;8.636;2023-07-09T04:40:12;22.98;56.94
25945;SHT31;13742;49.306;8.636;2023-07-09T04:41:12;23.01;57.43
25945;SHT31;13742;49.306;8.636;2023-07-09T04:42:15;23.00;57.68
25945;SHT31;13742;49.306;8.636;2023-07-09T04:43:12;22.95;57.76
25945;SHT31;13742;49.306;8.636;2023-07-09T04:44:12;22.97;57.53
25945;SHT31;13742;49.306;8.636;2023-07-09T04:45:12;22.97;57.17
25945;SHT31;13742;49.306;8.636;2023-07-09T04:46:12;22.95;57.54
25945;SHT31;13742;49.306;8.636;2023-07-09T04:47:12;22.95;57.33
25945;SHT31;13742;49.306;8.636;2023-07-09T04:48:12;22.94;57.10
25945;SHT31;13742;49.306;8.636;2023-07-09T04:49:12;22.98;57.13
25945;SHT31;13742;49.306;8.636;2023-07-09T04:50:13;22.95;57.32
25945;SHT31;13742;49.306;8.636;2023-07-09T04:51:12;22.95;57.55
25945;SHT31;13742;49.306;8.636;2023-07-09T04:52:14;22.94;57.18
25945;SHT31;13742;49.306;8.636;2023-07-09T04:53:12;22.97;57.24
25945;SHT31;13742;49.306;8.636;2023-07-09T04:54:15;22.98;57.22
25945;SHT31;13742;49.306;8.636;2023-07-09T04:55:13;22.97;57.21
25945;SHT31;13742;49.306;8.636;2023-07-09T04:56:12;23.00;57.98
25945;SHT31;13742;49.306;8.636;2023-07-09T04:57:12;23.01;58.11
25945;SHT31;13742;49.306;8.636;2023-07-09T04:58:12;23.00;57.62
25945;SHT31;13742;49.306;8.636;2023-07-09T04:59:12;23.01;58.18
25945;SHT31;13742;49.306;8.636;2023-07-09T05:00:13;23.00;57.86
25945;SHT31;13742;49.306;8.636;2023-07-09T05:01:12;23.03;57.90
25945;SHT31;13742;49.306;8.636;2023-07-09T05:02:12;23.05;57.74
25945;SHT31;13742;49.306;8.636;2023-07-09T05:03:13;23.04;57.96
25945;SHT31;13742;49.306;8.636;2023-07-09T05:04:12;23.05;57.60
25945;SHT31;13742;49.306;8.636;2023-07-09T05:05:12;23.05;57.77
25945;SHT31;13742;49.306;8.636;2023-07-09T05:06:13;23.05;58.00
25945;SHT31;13742;49.306;8.636;2023-07-09T05:07:13;23.09;57.93
25945;SHT31;13742;49.306;8.636;2023-07-09T05:08:13;23.07;57.87
25945;SHT31;13742;49.306;8.636;2023-07-09T05:09:12;23.11;57.77
25945;SHT31;13742;49.306;8.636;2023-07-09T05:10:13;23.10;57.57
25945;SHT31;13742;49.306;8.636;2023-07-09T05:11:12;23.13;57.75
25945;SHT31;13742;49.306;8.636;2023-07-09T05:12:13;23.14;57.42
25945;SHT31;13742;49.306;8.636;2023-07-09T05:13:13;23.15;57.94
25945;SHT31;13742;49.306;8.636;2023-07-09T05:14:12;23.15;57.65
25945;SHT31;13742;49.306;8.636;2023-07-09T05:15:12;23.15;57.25
25945;SHT31;13742;49.306;8.636;2023-07-09T05:16:14;23.18;57.16
25945;SHT31;13742;49.306;8.636;2023-07-09T05:17:12;23.20;57.31
25945;SHT31;13742;49.306;8.636;2023-07-09T05:18:14;23.24;57.43
25945;SHT31;13742;49.306;8.636;2023-07-09T05:19:12;23.22;57.02
25945;SHT31;13742;49.306;8.636;2023-07-09T05:20:14;23.27;57.74
25945;SHT31;13742;49.306;8.636;2023-07-09T05:21:13;23.25;57.13
25945;SHT31;13742;49.306;8.636;2023-07-09T05:22:12;23.28;57.22
25945;SHT31;13742;49.306;8.636;2023-07-09T05:23:16;23.31;57.21
25945;SHT31;13742;49.306;8.636;2023-07-09T05:24:12;23.31;57.20
25945;SHT31;13742;49.306;8.636;2023-07-09T05:25:12;23.34;57.53
25945;SHT31;13742;49.306;8.636;2023-07-09T05:26:12;23.32;57.85
25945;SHT31;13742;49.306;8.636;2023-07-09T05:27:12;23.35;57.70
25945;SHT31;13742;49.306;8.636;2023-07-09T05:28:12;23.35;57.48
25945;SHT31;13742;49.306;8.636;2023-07-09T05:29:13;23.35;57.34
25945;SHT31;13742;49.306;8.636;2023-07-09T05:30:12;23.38;57.42
25945;SHT31;13742;49.306;8.636;2023-07-09T05:31:12;23.42;57.15
25945;SHT31;13742;49.306;8.636;2023-07-09T05:32:12;23.41;57.32
25945;SHT31;13742;49.306;8.636;2023-07-09T05:33:13;23.45;57.10
25945;SHT31;13742;49.306;8.636;2023-07-09T05:34:12;23.46;57.16
25945;SHT31;13742;49.306;8.636;2023-07-09T05:35:13;23.48;57.44
25945;SHT31;13742;49.306;8.636;2023-07-09T05:36:15;23.49;57.15
25945;SHT31;13742;49.306;8.636;2023-07-09T05:37:12;23.49;56.90
25945;SHT31;13742;49.306;8.636;2023-07-09T05:38:13;23.51;57.08
25945;SHT31;13742;49.306;8.636;2023-07-09T05:39:12;23.53;56.99
25945;SHT31;13742;49.306;8.636;2023-07-09T05:40:13;23.53;57.14
25945;SHT31;13742;49.306;8.636;2023-07-09T05:41:13;23.55;57.12
25945;SHT31;13742;49.306;8.636;2023-07-09T05:42:12;23.56;57.26
25945;SHT31;13742;49.306;8.636;2023-07-09T05:43:12;23.56;57.05
25945;SHT31;13742;49.306;8.636;2023-07-09T05:44:12;23.62;57.13
25945;SHT31;13742;49.306;8.636;2023-07-09T05:45:12;23.59;56.63
25945;SHT31;13742;49.306;8.636;2023-07-09T05:46:13;23.65;56.88
25945;SHT31;13742;49.306;8.636;2023-07-09T05:47:13;23.68;56.95
25945;SHT31;13742;49.306;8.636;2023-07-09T05:48:12;23.69;57.10
25945;SHT31;13742;49.306;8.636;2023-07-09T05:49:12;23.71;57.07
25945;SHT31;13742;49.306;8.636;2023-07-09T05:50:12;23.71;56.95
25945;SHT31;13742;49.306;8.636;2023-07-09T05:51:12;23.75;56.82
25945;SHT31;13742;49.306;8.636;2023-07-09T05:52:12;23.76;56.98
25945;SHT31;13742;49.306;8.636;2023-07-09T05:53:12;23.79;57.26
25945;SHT31;13742;49.306;8.636;2023-07-09T05:54:12;23.82;57.20
25945;SHT31;13742;49.306;8.636;2023-07-09T05:55:12;23.83;57.05
25945;SHT31;13742;49.306;8.636;2023-07-09T05:56:12;23.85;56.77
25945;SHT31;13742;49.306;8.636;2023-07-09T05:57:12;23.86;56.94
25945;SHT31;13742;49.306;8.636;2023-07-09T05:58:12;23.89;56.60
25945;SHT31;13742;49.306;8.636;2023-07-09T05:59:12;23.93;56.98
25945;SHT31;13742;49.306;8.636;2023-07-09T06:00:13;23.95;57.06
25945;SHT31;13742;49.306;8.636;2023-07-09T06:01:13;23.97;56.81
25945;SHT31;13742;49.306;8.636;2023-07-09T06:02:14;23.97;56.63
25945;SHT31;13742;49.306;8.636;2023-07-09T06:03:12;24.03;56.41
25945;SHT31;13742;49.306;8.636;2023-07-09T06:04:13;24.03;57.12
25945;SHT31;13742;49.306;8.636;2023-07-09T06:05:13;24.07;56.42
25945;SHT31;13742;49.306;8.636;2023-07-09T06:06:13;24.11;56.95
25945;SHT31;13742;49.306;8.636;2023-07-09T06:07:13;24.11;56.51
25945;SHT31;13742;49.306;8.636;2023-07-09T06:08:13;24.16;56.36
25945;SHT31;13742;49.306;8.636;2023-07-09T06:09:12;24.17;56.45
25945;SHT31;13742;49.306;8.636;2023-07-09T06:10:14;24.20;56.35
25945;SHT31;13742;49.306;8.636;2023-07-09T06:11:12;24.23;56.50
25945;SHT31;13742;49.306;8.636;2023-07-09T06:12:13;24.24;55.92
25945;SHT31;13742;49.306;8.636;2023-07-09T06:13:12;24.28;56.14
25945;SHT31;13742;49.306;8.636;2023-07-09T06:14:12;24.31;55.96
25945;SHT31;13742;49.306;8.636;2023-07-09T06:15:12;24.34;55.97
25945;SHT31;13742;49.306;8.636;2023-07-09T06:16:12;24.37;56.12
25945;SHT31;13742;49.306;8.636;2023-07-09T06:17:12;24.39;55.86
25945;SHT31;13742;49.306;8.636;2023-07-09T06:18:12;24.41;55.96
25945;SHT31;13742;49.306;8.636;2023-07-09T06:19:12;24.44;55.74
25945;SHT31;13742;49.306;8.636;2023-07-09T06:20:12;24.48;55.58
25945;SHT31;13742;49.306;8.636;2023-07-09T06:21:12;24.48;55.40